createdAt,value
2023-03-16T00:02:08.165Z,5.78
2023-03-16T00:05:09.509Z,3.70
2023-03-16T00:08:10.837Z,3.05
2023-03-16T00:11:12.167Z,3.55
2023-03-16T00:14:13.469Z,2.90
2023-03-16T00:17:14.772Z,3.35
2023-03-16T00:20:16.085Z,3.70
2023-03-16T00:23:17.377Z,4.10
2023-03-16T00:26:18.655Z,3.63
2023-03-16T00:29:19.930Z,3.60
2023-03-16T00:32:21.233Z,2.50
2023-03-16T00:35:22.513Z,2.63
2023-03-16T00:38:23.807Z,3.17
2023-03-16T00:41:25.114Z,2.25
2023-03-16T00:44:26.425Z,3.70
2023-03-16T00:47:27.706Z,3.35
2023-03-16T00:50:29.503Z,2.78
2023-03-16T00:53:30.957Z,3.20
2023-03-16T00:56:32.248Z,4.97
2023-03-16T00:59:33.543Z,3.13
2023-03-16T01:02:34.852Z,3.50
2023-03-16T01:05:36.156Z,2.90
2023-03-16T01:08:37.585Z,4.93
2023-03-16T01:11:38.887Z,3.15
2023-03-16T01:14:40.189Z,3.30
2023-03-16T01:17:41.484Z,2.97
2023-03-16T01:20:42.780Z,2.70
2023-03-16T01:23:44.067Z,2.78
2023-03-16T01:26:45.362Z,3.58
2023-03-16T01:29:46.654Z,3.33
2023-03-16T01:32:47.978Z,3.20
2023-03-16T01:35:49.357Z,3.33
2023-03-16T01:38:50.676Z,2.90
2023-03-16T01:41:51.971Z,2.85
2023-03-16T01:44:53.281Z,3.40
2023-03-16T01:47:54.577Z,3.33
2023-03-16T01:50:55.870Z,2.42
2023-03-16T01:53:57.164Z,2.65
2023-03-16T01:56:58.454Z,4.05
2023-03-16T01:59:59.771Z,2.53
2023-03-16T02:03:01.044Z,2.50
2023-03-16T02:06:02.352Z,2.10
2023-03-16T02:09:03.661Z,2.72
2023-03-16T02:12:04.929Z,2.30
2023-03-16T02:15:06.226Z,2.40
2023-03-16T02:18:07.523Z,2.95
2023-03-16T02:21:08.820Z,4.18
2023-03-16T02:24:10.102Z,2.58
2023-03-16T02:27:11.403Z,3.00
2023-03-16T02:30:12.696Z,2.70
2023-03-16T02:33:13.962Z,3.00
2023-03-16T02:36:15.274Z,3.22
2023-03-16T02:39:16.558Z,3.50
2023-03-16T02:42:17.874Z,3.15
2023-03-16T02:45:19.188Z,2.50
2023-03-16T02:48:20.482Z,2.88
2023-03-16T02:51:21.760Z,3.22
2023-03-16T02:54:23.056Z,3.10
2023-03-16T02:57:24.359Z,3.28
2023-03-16T03:00:25.770Z,3.80
2023-03-16T03:03:27.214Z,2.53
2023-03-16T03:06:28.593Z,2.75
2023-03-16T03:09:29.908Z,2.10
2023-03-16T03:12:31.233Z,2.50
2023-03-16T03:15:32.574Z,2.40
2023-03-16T03:18:33.858Z,2.40
2023-03-16T03:21:35.161Z,3.20
2023-03-16T03:24:36.461Z,3.38
2023-03-16T03:27:37.780Z,2.70
2023-03-16T03:30:39.070Z,2.07
2023-03-16T03:33:40.369Z,3.42
2023-03-16T03:36:41.655Z,2.60
2023-03-16T03:39:42.955Z,3.17
2023-03-16T03:42:44.261Z,2.75
2023-03-16T03:45:45.597Z,2.53
2023-03-16T03:48:46.946Z,3.08
2023-03-16T03:51:48.343Z,3.03
2023-03-16T03:54:49.642Z,2.30
2023-03-16T03:57:50.925Z,2.72
2023-03-16T04:00:52.216Z,2.23
2023-03-16T04:03:53.487Z,3.53
2023-03-16T04:06:54.796Z,2.75
2023-03-16T04:09:56.092Z,1.90
2023-03-16T04:12:57.390Z,3.03
2023-03-16T04:15:58.680Z,2.93
2023-03-16T04:18:59.962Z,4.95
2023-03-16T04:22:01.265Z,3.20
2023-03-16T04:25:02.559Z,2.38
2023-03-16T04:28:03.859Z,3.55
2023-03-16T04:31:05.194Z,2.90
2023-03-16T04:34:06.527Z,3.03
2023-03-16T04:37:07.820Z,3.53
2023-03-16T04:40:10.858Z,2.63
2023-03-16T04:43:12.323Z,2.88
2023-03-16T04:46:13.719Z,2.53
2023-03-16T04:49:15.037Z,2.90
2023-03-16T04:52:16.314Z,3.03
2023-03-16T04:55:17.627Z,3.03
2023-03-16T04:58:18.929Z,3.13
2023-03-16T05:01:20.252Z,2.83
2023-03-16T05:04:21.568Z,2.65
2023-03-16T05:07:22.856Z,3.65
2023-03-16T05:10:24.172Z,4.47
2023-03-16T05:13:25.457Z,20.05
2023-03-16T05:16:26.757Z,9.77
2023-03-16T05:19:28.063Z,8.38
2023-03-16T05:22:29.360Z,7.22
2023-03-16T05:25:30.646Z,6.07
2023-03-16T05:28:31.953Z,6.22
2023-03-16T05:31:33.324Z,6.43
2023-03-16T05:34:34.628Z,10.27
2023-03-16T05:37:35.933Z,9.00
2023-03-16T05:40:37.274Z,4.60
2023-03-16T05:43:38.622Z,4.65
2023-03-16T05:46:39.934Z,5.87
2023-03-16T05:49:41.312Z,3.70
2023-03-16T05:52:42.616Z,7.25
2023-03-16T05:55:43.917Z,6.22
2023-03-16T05:58:45.223Z,4.10
2023-03-16T06:01:46.517Z,5.43
2023-03-16T06:04:47.816Z,5.25
2023-03-16T06:07:49.105Z,4.60
2023-03-16T06:10:50.419Z,3.45
2023-03-16T06:13:51.722Z,3.95
2023-03-16T06:16:53.025Z,5.77
2023-03-16T06:19:54.408Z,3.60
2023-03-16T06:22:55.703Z,4.07
2023-03-16T06:25:57.009Z,5.93
2023-03-16T06:28:58.324Z,3.40
2023-03-16T06:31:59.666Z,4.27
2023-03-16T06:35:00.982Z,3.45
2023-03-16T06:38:02.304Z,6.60
2023-03-16T06:41:03.620Z,6.82
2023-03-16T06:44:04.962Z,3.35
2023-03-16T06:47:06.300Z,4.40
2023-03-16T06:50:07.793Z,32.15
2023-03-16T06:53:09.183Z,59.40
2023-03-16T06:56:10.503Z,24.83
2023-03-16T06:59:11.841Z,16.25
2023-03-16T07:02:13.195Z,20.60
2023-03-16T07:05:14.533Z,18.63
2023-03-16T07:08:15.920Z,15.32
2023-03-16T07:11:17.278Z,24.67
2023-03-16T07:14:18.625Z,35.58
2023-03-16T07:17:19.952Z,31.33
2023-03-16T07:20:23.567Z,20.17
2023-03-16T07:23:25.084Z,18.63
2023-03-16T07:26:26.434Z,18.67
2023-03-16T07:29:27.763Z,28.10
2023-03-16T07:32:29.127Z,20.33
2023-03-16T07:35:30.480Z,20.33
2023-03-16T07:38:31.823Z,26.52
2023-03-16T07:41:33.132Z,26.08
2023-03-16T07:44:36.324Z,22.10
2023-03-16T07:47:37.678Z,21.80
2023-03-16T07:50:38.988Z,20.85
2023-03-16T07:53:40.328Z,14.90
2023-03-16T07:56:48.952Z,18.30
2023-03-16T07:59:51.040Z,16.17
2023-03-16T08:02:52.367Z,15.10
2023-03-16T08:05:53.733Z,18.00
2023-03-16T08:08:55.101Z,14.25
2023-03-16T08:11:56.428Z,13.98
2023-03-16T08:14:57.750Z,8.60
2023-03-16T08:17:59.052Z,18.57
2023-03-16T08:21:00.387Z,13.95
2023-03-16T08:24:01.708Z,16.75
2023-03-16T08:27:03.033Z,13.70
2023-03-16T08:30:04.355Z,13.38
2023-03-16T08:33:08.074Z,11.90
2023-03-16T08:36:09.622Z,12.95
2023-03-16T08:39:12.106Z,10.52
2023-03-16T08:42:13.621Z,14.80
2023-03-16T08:45:14.982Z,10.73
2023-03-16T08:48:16.356Z,11.10
2023-03-16T08:51:17.712Z,10.55
2023-03-16T08:54:19.055Z,14.60
2023-03-16T08:57:20.378Z,10.65
2023-03-16T09:00:21.746Z,42.80
2023-03-16T09:03:24.241Z,51.90
2023-03-16T09:06:25.581Z,58.90
2023-03-16T09:09:26.883Z,40.28
2023-03-16T09:12:28.193Z,40.55
2023-03-16T09:15:29.512Z,26.63
2023-03-16T09:18:30.797Z,25.87
2023-03-16T09:21:32.168Z,18.67
2023-03-16T09:24:33.446Z,21.27
2023-03-16T09:27:34.753Z,20.85
2023-03-16T09:30:36.073Z,26.52
2023-03-16T09:33:37.387Z,13.93
2023-03-16T09:36:38.702Z,23.83
2023-03-16T09:39:40.027Z,24.08
2023-03-16T09:42:41.320Z,15.55
2023-03-16T09:45:42.643Z,13.57
2023-03-16T09:48:43.936Z,11.87
2023-03-16T09:51:45.260Z,22.80
2023-03-16T09:54:46.560Z,15.25
2023-03-16T09:57:47.870Z,19.58
2023-03-16T10:00:49.182Z,10.85
2023-03-16T10:03:50.551Z,20.50
2023-03-16T10:06:51.902Z,20.70
2023-03-16T10:09:53.206Z,17.73
2023-03-16T10:12:54.568Z,15.38
2023-03-16T10:15:55.870Z,19.67
2023-03-16T10:18:57.171Z,13.97
2023-03-16T10:21:58.450Z,13.23
2023-03-16T10:24:59.757Z,16.38
2023-03-16T10:28:01.340Z,14.68
2023-03-16T10:31:02.694Z,21.25
2023-03-16T10:34:04.028Z,48.23
2023-03-16T10:37:05.352Z,41.05
2023-03-16T10:40:06.690Z,38.13
2023-03-16T10:43:08.002Z,36.88
2023-03-16T10:46:09.381Z,26.92
2023-03-16T10:49:10.676Z,21.87
2023-03-16T10:52:11.981Z,21.75
2023-03-16T10:55:14.507Z,33.28
2023-03-16T10:58:15.804Z,16.83
2023-03-16T11:01:17.159Z,29.15
2023-03-16T11:04:18.517Z,23.77
2023-03-16T11:07:19.850Z,15.48
2023-03-16T11:10:21.151Z,16.27
2023-03-16T11:13:22.471Z,22.75
2023-03-16T11:16:23.912Z,17.00
2023-03-16T11:19:25.457Z,20.17
2023-03-16T11:22:26.833Z,24.10
2023-03-16T11:25:28.272Z,19.25
2023-03-16T11:28:29.709Z,18.83
2023-03-16T11:31:31.027Z,18.42
2023-03-16T11:34:32.344Z,18.97
2023-03-16T11:37:33.777Z,15.85
2023-03-16T11:40:35.073Z,16.33
2023-03-16T11:43:36.389Z,15.35
2023-03-16T11:46:37.750Z,14.88
2023-03-16T11:49:39.154Z,14.23
2023-03-16T11:52:40.466Z,12.98
2023-03-16T11:55:41.755Z,8.25
2023-03-16T11:58:43.081Z,6.63
2023-03-16T12:01:54.316Z,10.13
2023-03-16T12:05:01.778Z,10.03
2023-03-16T12:08:03.082Z,8.93
2023-03-16T12:11:04.409Z,9.80
2023-03-16T12:14:05.705Z,7.10
2023-03-16T12:17:07.057Z,6.43
2023-03-16T12:20:08.385Z,11.87
2023-03-16T12:23:09.688Z,8.15
2023-03-16T12:26:10.993Z,9.07
2023-03-16T12:29:12.283Z,7.70
2023-03-16T12:32:13.575Z,5.70
2023-03-16T12:35:14.889Z,10.87
2023-03-16T12:38:16.185Z,10.20
2023-03-16T12:41:18.052Z,9.68
2023-03-16T12:44:19.534Z,7.85
2023-03-16T12:47:20.827Z,8.43
2023-03-16T12:50:22.105Z,12.37
2023-03-16T12:53:23.416Z,10.45
2023-03-16T12:56:24.705Z,8.25
2023-03-16T12:59:26.024Z,8.43
2023-03-16T13:02:27.329Z,7.65
2023-03-16T13:05:28.824Z,3.63
2023-03-16T13:08:30.232Z,8.02
2023-03-16T13:11:31.537Z,29.67
2023-03-16T13:14:32.841Z,12.77
2023-03-16T13:17:34.195Z,15.30
2023-03-16T13:20:35.830Z,11.87
2023-03-16T13:23:38.676Z,8.85
2023-03-16T13:26:40.036Z,10.77
2023-03-16T13:29:41.326Z,11.77
2023-03-16T13:32:42.683Z,9.43
2023-03-16T13:35:44.079Z,7.67
2023-03-16T13:38:45.403Z,10.75
2023-03-16T13:41:46.722Z,11.38
2023-03-16T13:44:48.008Z,18.70
2023-03-16T13:47:49.318Z,13.45
2023-03-16T13:50:50.612Z,19.57
2023-03-16T13:53:51.936Z,15.95
2023-03-16T13:56:53.258Z,8.48
2023-03-16T13:59:54.570Z,7.15
2023-03-16T14:02:56.171Z,10.20
2023-03-16T14:05:57.628Z,13.43
2023-03-16T14:08:58.925Z,15.43
2023-03-16T14:12:00.240Z,9.63
2023-03-16T14:15:01.532Z,7.30
2023-03-16T14:18:02.875Z,9.35
2023-03-16T14:21:04.169Z,7.37
2023-03-16T14:24:05.473Z,7.22
2023-03-16T14:27:06.791Z,7.43
2023-03-16T14:30:08.111Z,8.20
2023-03-16T14:33:09.464Z,8.52
2023-03-16T14:36:10.868Z,11.67
2023-03-16T14:39:12.182Z,10.48
2023-03-16T14:42:13.488Z,6.85
2023-03-16T14:45:14.788Z,9.35
2023-03-16T14:48:16.099Z,7.38
2023-03-16T14:51:17.407Z,5.70
2023-03-16T14:54:18.718Z,7.40
2023-03-16T14:57:20.121Z,4.82
2023-03-16T15:00:21.414Z,6.07
2023-03-16T15:03:22.721Z,8.43
2023-03-16T15:06:24.032Z,7.10
2023-03-16T15:09:25.338Z,5.10
2023-03-16T15:12:26.663Z,6.93
2023-03-16T15:15:27.957Z,16.23
2023-03-16T15:18:29.248Z,8.90
2023-03-16T15:21:30.580Z,20.20
2023-03-16T15:24:31.908Z,9.90
2023-03-16T15:27:33.215Z,10.60
2023-03-16T15:30:34.519Z,17.02
2023-03-16T15:33:35.838Z,9.95
2023-03-16T15:36:37.141Z,19.53
2023-03-16T15:39:38.436Z,22.38
2023-03-16T15:42:39.730Z,80.40
2023-03-16T15:45:41.033Z,44.17
2023-03-16T15:48:42.331Z,46.53
2023-03-16T15:51:43.633Z,23.43
2023-03-16T15:54:44.913Z,17.17
2023-03-16T15:57:46.216Z,20.40
2023-03-16T16:00:47.526Z,18.98
2023-03-16T16:03:48.905Z,15.07
2023-03-16T16:06:51.222Z,12.03
2023-03-16T16:09:52.510Z,11.23
2023-03-16T16:12:53.832Z,12.68
2023-03-16T16:15:55.104Z,6.85
2023-03-16T16:18:56.419Z,6.75
2023-03-16T16:21:57.740Z,7.90
2023-03-16T16:24:59.038Z,9.88
2023-03-16T16:28:00.356Z,6.85
2023-03-16T16:31:01.681Z,5.85
2023-03-16T16:34:03.161Z,5.43
2023-03-16T16:37:04.448Z,6.07
2023-03-16T16:40:05.759Z,7.90
2023-03-16T16:43:07.356Z,6.50
2023-03-16T16:46:08.724Z,7.43
2023-03-16T16:49:10.344Z,4.95
2023-03-16T16:52:11.689Z,27.83
2023-03-16T16:55:13.288Z,59.45
2023-03-16T16:58:23.903Z,46.80
2023-03-16T17:01:26.540Z,37.15
2023-03-16T17:04:28.351Z,37.67
2023-03-16T17:07:29.772Z,18.80
2023-03-16T17:10:31.080Z,17.70
2023-03-16T17:13:32.391Z,16.42
2023-03-16T17:16:33.745Z,14.82
2023-03-16T17:19:35.055Z,17.52
2023-03-16T17:22:36.812Z,12.80
2023-03-16T17:25:38.172Z,11.27
2023-03-16T17:28:39.483Z,13.60
2023-03-16T17:31:41.099Z,14.48
2023-03-16T17:34:42.422Z,11.48
2023-03-16T17:37:44.061Z,15.77
2023-03-16T17:40:45.702Z,12.82
2023-03-16T17:43:47.530Z,10.38
2023-03-16T17:46:49.022Z,12.30
2023-03-16T17:49:50.546Z,9.98
2023-03-16T17:52:52.246Z,14.50
2023-03-16T17:55:54.066Z,11.50
2023-03-16T17:58:55.860Z,9.65
2023-03-16T18:01:57.685Z,11.77
2023-03-16T18:05:01.921Z,11.10
2023-03-16T18:08:03.923Z,9.23
2023-03-16T18:11:05.709Z,10.55
2023-03-16T18:14:07.553Z,9.63
2023-03-16T18:17:09.427Z,12.05
2023-03-16T18:20:13.846Z,10.00
2023-03-16T18:23:16.910Z,13.17
2023-03-16T18:26:18.852Z,11.05
2023-03-16T18:29:24.322Z,11.32
2023-03-16T18:32:26.285Z,11.32
2023-03-16T18:35:28.391Z,11.80
2023-03-16T18:38:30.434Z,12.20
2023-03-16T18:41:32.325Z,9.70
2023-03-16T18:44:34.264Z,11.88
2023-03-16T18:47:36.192Z,9.10
2023-03-16T18:50:38.158Z,11.50
2023-03-16T18:53:39.557Z,11.20
2023-03-16T18:56:41.326Z,11.07
2023-03-16T18:59:42.702Z,10.90
2023-03-16T19:02:44.559Z,11.77
2023-03-16T19:05:46.903Z,12.77
2023-03-16T19:08:48.891Z,13.27
2023-03-16T19:11:50.810Z,12.80
2023-03-16T19:14:52.961Z,12.25
2023-03-16T19:17:54.580Z,12.05
2023-03-16T19:20:58.779Z,16.83
2023-03-16T19:24:00.600Z,15.57
2023-03-16T19:27:02.418Z,13.75
2023-03-16T19:30:04.309Z,13.77
2023-03-16T19:33:08.746Z,15.35
2023-03-16T19:36:11.204Z,15.13
2023-03-16T19:39:13.041Z,13.20
2023-03-16T19:42:14.981Z,13.45
2023-03-16T19:45:16.887Z,16.17
2023-03-16T19:48:18.844Z,15.55
2023-03-16T19:51:20.744Z,16.25
2023-03-16T19:54:22.603Z,14.60
2023-03-16T19:57:24.901Z,16.73
2023-03-16T20:00:26.729Z,15.13
2023-03-16T20:03:28.590Z,17.45
2023-03-16T20:06:30.499Z,16.10
2023-03-16T20:09:32.422Z,16.90
2023-03-16T20:12:34.307Z,15.93
2023-03-16T20:15:36.120Z,18.58
2023-03-16T20:18:38.088Z,17.98
2023-03-16T20:21:40.115Z,16.90
2023-03-16T20:24:43.862Z,16.83
2023-03-16T20:27:47.320Z,16.65
2023-03-16T20:30:49.305Z,17.02
2023-03-16T20:33:51.185Z,16.05
2023-03-16T20:36:55.225Z,18.30
2023-03-16T20:39:59.704Z,15.37
2023-03-16T20:43:02.282Z,16.42
2023-03-16T20:46:04.183Z,16.35
2023-03-16T20:49:05.980Z,16.50
2023-03-16T20:52:07.614Z,20.02
2023-03-16T20:55:09.242Z,17.03
2023-03-16T20:58:10.938Z,19.45
2023-03-16T21:01:13.418Z,21.65
2023-03-16T21:04:15.902Z,19.48
2023-03-16T21:07:17.420Z,20.65
2023-03-16T21:10:18.760Z,18.70
2023-03-16T21:13:20.107Z,20.98
2023-03-16T21:16:21.490Z,21.05
2023-03-16T21:19:24.115Z,19.85
2023-03-16T21:22:25.532Z,22.50
2023-03-16T21:25:27.258Z,20.63
2023-03-16T21:28:28.624Z,22.60
2023-03-16T21:31:30.012Z,26.42
2023-03-16T21:34:31.364Z,23.52
2023-03-16T21:37:32.720Z,21.98
2023-03-16T21:40:34.082Z,22.53
2023-03-16T21:43:35.400Z,23.08
2023-03-16T21:46:36.732Z,23.35
2023-03-16T21:49:38.088Z,22.73
2023-03-16T21:52:39.373Z,24.45
2023-03-16T21:55:40.690Z,23.40
2023-03-16T21:58:41.996Z,26.30
2023-03-16T22:02:00.415Z,24.67
2023-03-16T22:05:02.295Z,25.10
2023-03-16T22:08:03.595Z,24.00
2023-03-16T22:11:04.875Z,24.80
2023-03-16T22:14:06.164Z,24.65
2023-03-16T22:17:07.480Z,21.58
2023-03-16T22:20:08.802Z,24.13
2023-03-16T22:23:10.092Z,23.77
2023-03-16T22:26:11.400Z,22.60
2023-03-16T22:29:12.699Z,23.45
2023-03-16T22:32:13.985Z,23.40
2023-03-16T22:35:15.293Z,22.15
2023-03-16T22:38:16.612Z,22.73
2023-03-16T22:41:17.908Z,20.83
2023-03-16T22:44:21.959Z,22.33
2023-03-16T22:47:23.746Z,21.45
2023-03-16T22:50:25.062Z,21.15
2023-03-16T22:53:26.325Z,20.67
2023-03-16T22:56:27.630Z,21.73
2023-03-16T22:59:28.915Z,18.08
2023-03-16T23:02:30.241Z,18.33
2023-03-16T23:05:31.760Z,18.15
2023-03-16T23:08:33.128Z,19.73
2023-03-16T23:11:34.447Z,16.97
2023-03-16T23:14:35.756Z,19.02
2023-03-16T23:17:37.071Z,16.80
2023-03-16T23:20:38.358Z,17.10
2023-03-16T23:23:39.736Z,17.48
2023-03-16T23:26:41.038Z,18.13
2023-03-16T23:29:42.345Z,18.52
2023-03-16T23:32:43.665Z,16.85
2023-03-16T23:35:45.001Z,16.40
2023-03-16T23:38:46.318Z,17.55
2023-03-16T23:41:47.643Z,15.23
2023-03-16T23:44:48.936Z,15.70
2023-03-16T23:47:50.241Z,14.55
2023-03-16T23:50:51.548Z,16.27
2023-03-16T23:53:52.854Z,15.27
2023-03-16T23:56:54.136Z,14.90
2023-03-16T23:59:55.422Z,14.57
